createdAt,value
2023-04-30T00:02:48.757Z,8.77
2023-04-30T00:05:50.673Z,8.30
2023-04-30T00:08:51.930Z,8.57
2023-04-30T00:11:53.235Z,8.65
2023-04-30T00:14:56.261Z,8.32
2023-04-30T00:17:57.562Z,7.82
2023-04-30T00:20:58.891Z,9.60
2023-04-30T00:24:03.161Z,7.53
2023-04-30T00:27:04.507Z,8.60
2023-04-30T00:30:06.552Z,8.73
2023-04-30T00:33:07.905Z,8.93
2023-04-30T00:36:09.310Z,9.43
2023-04-30T00:39:10.571Z,8.93
2023-04-30T00:42:11.885Z,10.60
2023-04-30T00:45:13.190Z,9.18
2023-04-30T00:48:15.852Z,8.52
2023-04-30T00:51:17.273Z,10.65
2023-04-30T00:54:20.130Z,8.70
2023-04-30T00:57:22.545Z,9.38
2023-04-30T01:00:24.853Z,8.68
2023-04-30T01:03:26.323Z,9.43
2023-04-30T01:06:27.885Z,9.48
2023-04-30T01:09:29.586Z,9.68
2023-04-30T01:12:30.890Z,10.13
2023-04-30T01:15:50.789Z,9.05
2023-04-30T01:18:59.143Z,8.60
2023-04-30T01:22:03.407Z,9.07
2023-04-30T01:25:20.164Z,9.32
2023-04-30T01:28:22.393Z,8.38
2023-04-30T01:31:23.989Z,11.05
2023-04-30T01:34:25.404Z,9.00
2023-04-30T01:37:26.750Z,9.18
2023-04-30T01:40:32.479Z,8.73
2023-04-30T01:43:33.758Z,10.10
2023-04-30T01:46:35.468Z,9.80
2023-04-30T01:49:47.882Z,9.77
2023-04-30T01:52:53.432Z,8.77
2023-04-30T01:55:59.479Z,9.35
2023-04-30T01:59:00.998Z,9.10
2023-04-30T02:02:02.913Z,9.15
2023-04-30T02:05:04.304Z,11.82
2023-04-30T02:08:05.973Z,11.43
2023-04-30T02:11:07.795Z,9.85
2023-04-30T02:14:09.055Z,10.63
2023-04-30T02:17:10.314Z,10.60
2023-04-30T02:20:11.875Z,9.25
2023-04-30T02:23:13.332Z,9.23
2023-04-30T02:26:14.764Z,10.38
2023-04-30T02:29:17.312Z,8.95
2023-04-30T02:32:18.994Z,10.75
2023-04-30T02:35:20.614Z,10.25
2023-04-30T02:38:21.845Z,9.20
2023-04-30T02:41:23.124Z,9.23
2023-04-30T02:44:24.496Z,10.20
2023-04-30T02:47:26.011Z,9.30
2023-04-30T02:50:27.342Z,9.05
2023-04-30T02:53:28.677Z,9.90
2023-04-30T02:56:29.940Z,10.50
2023-04-30T02:59:31.274Z,9.63
2023-04-30T03:02:32.673Z,11.50
2023-04-30T03:05:34.103Z,11.68
2023-04-30T03:08:35.407Z,10.32
2023-04-30T03:11:37.661Z,12.02
2023-04-30T03:14:39.044Z,11.38
2023-04-30T03:17:40.399Z,10.68
2023-04-30T03:20:42.393Z,10.00
2023-04-30T03:23:43.683Z,11.68
2023-04-30T03:26:45.423Z,11.05
2023-04-30T03:29:46.718Z,13.23
2023-04-30T03:32:48.041Z,13.18
2023-04-30T03:35:50.377Z,10.73
2023-04-30T03:38:51.680Z,11.55
2023-04-30T03:41:52.965Z,12.25
2023-04-30T03:44:54.237Z,12.73
2023-04-30T03:47:55.822Z,10.52
2023-04-30T03:50:57.102Z,12.73
2023-04-30T03:53:58.359Z,10.60
2023-04-30T03:57:00.389Z,17.60
2023-04-30T04:00:02.072Z,12.20
2023-04-30T04:03:03.655Z,14.07
2023-04-30T04:06:05.234Z,11.13
2023-04-30T04:09:06.628Z,11.88
2023-04-30T04:12:07.921Z,13.70
2023-04-30T04:15:09.478Z,12.05
2023-04-30T04:18:10.824Z,11.57
2023-04-30T04:21:12.792Z,12.88
2023-04-30T04:24:14.094Z,12.40
2023-04-30T04:27:16.369Z,12.32
2023-04-30T04:30:17.828Z,12.65
2023-04-30T04:33:19.111Z,11.32
2023-04-30T04:36:20.427Z,16.13
2023-04-30T04:39:21.665Z,11.35
2023-04-30T04:42:22.928Z,13.40
2023-04-30T04:45:24.221Z,10.00
2023-04-30T04:48:25.469Z,10.95
2023-04-30T04:51:26.976Z,12.60
2023-04-30T04:54:28.267Z,10.88
2023-04-30T04:57:29.577Z,11.30
2023-04-30T05:00:30.849Z,11.65
2023-04-30T05:03:32.766Z,12.20
2023-04-30T05:06:34.276Z,10.23
2023-04-30T05:09:35.663Z,10.73
2023-04-30T05:12:36.964Z,10.80
2023-04-30T05:15:39.476Z,10.82
2023-04-30T05:18:40.859Z,10.20
2023-04-30T05:21:42.248Z,10.95
2023-04-30T05:24:43.520Z,8.73
2023-04-30T05:27:44.931Z,8.32
2023-04-30T05:30:46.390Z,9.93
2023-04-30T05:33:47.741Z,10.25
2023-04-30T05:36:49.013Z,9.20
2023-04-30T05:39:50.400Z,9.18
2023-04-30T05:42:51.677Z,7.68
2023-04-30T05:45:52.976Z,10.90
2023-04-30T05:48:54.320Z,7.57
2023-04-30T05:51:55.671Z,12.52
2023-04-30T05:54:56.953Z,8.25
2023-04-30T05:57:58.290Z,7.13
2023-04-30T06:00:59.579Z,8.55
2023-04-30T06:04:01.304Z,8.45
2023-04-30T06:07:02.604Z,6.68
2023-04-30T06:10:04.062Z,6.95
2023-04-30T06:13:06.257Z,9.30
2023-04-30T06:16:08.306Z,8.35
2023-04-30T06:19:09.776Z,8.48
2023-04-30T06:22:11.083Z,7.68
2023-04-30T06:25:12.462Z,6.82
2023-04-30T06:28:13.764Z,8.50
2023-04-30T06:31:15.382Z,7.28
2023-04-30T06:34:16.683Z,6.50
2023-04-30T06:37:18.716Z,8.98
2023-04-30T06:40:20.641Z,6.75
2023-04-30T06:43:21.880Z,6.45
2023-04-30T06:46:23.253Z,6.40
2023-04-30T06:49:24.531Z,7.07
2023-04-30T06:52:25.888Z,6.93
2023-04-30T06:55:28.027Z,6.47
2023-04-30T06:58:29.314Z,5.82
2023-04-30T07:01:30.794Z,8.98
2023-04-30T07:04:32.585Z,6.70
2023-04-30T07:07:34.749Z,6.03
2023-04-30T07:10:36.270Z,4.85
2023-04-30T07:13:38.466Z,5.57
2023-04-30T07:16:39.724Z,5.13
2023-04-30T07:19:41.153Z,5.75
2023-04-30T07:22:46.234Z,5.97
2023-04-30T07:25:47.684Z,5.18
2023-04-30T07:28:49.884Z,5.22
2023-04-30T07:31:51.672Z,6.28
2023-04-30T07:34:53.595Z,5.47
2023-04-30T07:37:54.933Z,5.88
2023-04-30T07:40:56.283Z,8.32
2023-04-30T07:43:57.711Z,4.68
2023-04-30T07:46:58.982Z,6.22
2023-04-30T07:50:00.363Z,5.78
2023-04-30T07:53:01.892Z,5.82
2023-04-30T07:56:03.521Z,4.82
2023-04-30T07:59:04.885Z,5.22
2023-04-30T08:02:06.903Z,6.47
2023-04-30T08:05:09.256Z,5.57
2023-04-30T08:08:10.557Z,7.53
2023-04-30T08:11:12.493Z,5.10
2023-04-30T08:14:13.803Z,5.72
2023-04-30T08:17:15.045Z,5.68
2023-04-30T08:20:16.925Z,4.45
2023-04-30T08:23:18.232Z,5.25
2023-04-30T08:26:19.535Z,5.43
2023-04-30T08:29:20.815Z,5.25
2023-04-30T08:32:22.262Z,4.75
2023-04-30T08:35:23.634Z,5.15
2023-04-30T08:38:26.948Z,4.60
2023-04-30T08:41:32.801Z,4.50
2023-04-30T08:44:36.120Z,5.20
2023-04-30T08:47:38.448Z,3.63
2023-04-30T08:50:40.096Z,4.30
2023-04-30T08:53:42.146Z,4.07
2023-04-30T08:56:44.742Z,3.72
2023-04-30T08:59:48.805Z,4.32
2023-04-30T09:02:50.372Z,3.33
2023-04-30T09:05:52.138Z,4.15
2023-04-30T09:08:54.310Z,3.92
2023-04-30T09:12:17.137Z,3.58
2023-04-30T09:15:19.919Z,3.53
2023-04-30T09:18:21.718Z,3.75
2023-04-30T09:21:35.961Z,4.20
2023-04-30T09:24:48.052Z,3.00
2023-04-30T09:27:49.527Z,2.55
2023-04-30T09:30:51.233Z,3.55
2023-04-30T09:33:53.702Z,3.15
2023-04-30T09:36:55.805Z,4.15
2023-04-30T09:39:57.471Z,3.05
2023-04-30T09:42:59.917Z,2.85
2023-04-30T09:46:01.364Z,3.00
2023-04-30T09:49:03.868Z,3.55
2023-04-30T09:52:05.438Z,3.00
2023-04-30T09:55:07.603Z,3.65
2023-04-30T09:58:10.323Z,3.00
2023-04-30T10:01:11.724Z,3.15
2023-04-30T10:04:13.446Z,3.30
2023-04-30T10:07:22.401Z,3.47
2023-04-30T10:10:25.879Z,5.30
2023-04-30T10:13:29.586Z,3.00
2023-04-30T10:16:57.582Z,4.82
2023-04-30T10:20:01.723Z,3.60
2023-04-30T10:23:03.007Z,3.20
2023-04-30T10:26:04.754Z,3.55
2023-04-30T10:29:06.953Z,3.17
2023-04-30T10:32:08.637Z,5.07
2023-04-30T10:35:12.492Z,2.13
2023-04-30T10:38:25.033Z,2.65
2023-04-30T10:41:28.014Z,2.88
2023-04-30T10:44:31.946Z,3.13
2023-04-30T10:47:33.361Z,2.22
2023-04-30T10:50:48.848Z,2.33
2023-04-30T10:53:51.836Z,2.33
2023-04-30T10:56:53.311Z,3.05
2023-04-30T11:00:15.143Z,2.65
2023-04-30T11:03:16.480Z,2.00
2023-04-30T11:06:21.676Z,2.70
2023-04-30T11:09:41.746Z,3.65
2023-04-30T11:12:49.232Z,2.55
2023-04-30T11:15:50.579Z,2.10
2023-04-30T11:18:52.473Z,1.70
2023-04-30T11:22:02.871Z,2.40
2023-04-30T11:25:10.985Z,3.78
2023-04-30T11:28:17.647Z,1.77
2023-04-30T11:31:19.170Z,2.13
2023-04-30T11:34:20.632Z,2.35
2023-04-30T11:37:29.959Z,3.17
2023-04-30T11:40:35.202Z,2.30
2023-04-30T11:43:36.509Z,2.38
2023-04-30T11:46:37.795Z,2.33
2023-04-30T11:49:39.176Z,2.15
2023-04-30T11:52:41.018Z,2.42
2023-04-30T11:55:42.709Z,3.03
2023-04-30T11:58:46.245Z,2.72
2023-04-30T12:01:47.706Z,3.75
2023-04-30T12:04:49.116Z,1.80
2023-04-30T12:07:51.473Z,1.75
2023-04-30T12:10:52.733Z,1.70
2023-04-30T12:13:54.785Z,2.10
2023-04-30T12:16:56.509Z,1.92
2023-04-30T12:19:58.512Z,1.73
2023-04-30T12:22:59.881Z,2.65
2023-04-30T12:26:01.205Z,1.85
2023-04-30T12:29:10.458Z,2.00
2023-04-30T12:32:16.200Z,2.75
2023-04-30T12:35:24.289Z,2.08
2023-04-30T12:38:25.625Z,2.28
2023-04-30T12:41:29.163Z,2.45
2023-04-30T12:44:30.493Z,2.03
2023-04-30T12:47:31.910Z,2.28
2023-04-30T12:50:33.562Z,1.83
2023-04-30T12:53:44.589Z,1.67
2023-04-30T12:57:18.296Z,1.95
2023-04-30T13:00:19.576Z,1.40
2023-04-30T13:03:21.533Z,1.88
2023-04-30T13:06:23.599Z,2.50
2023-04-30T13:09:24.954Z,3.63
2023-04-30T13:12:26.266Z,2.40
2023-04-30T13:15:27.603Z,3.63
2023-04-30T13:18:28.834Z,2.92
2023-04-30T13:21:30.688Z,4.15
2023-04-30T13:24:31.959Z,2.72
2023-04-30T13:27:33.287Z,2.30
2023-04-30T13:30:34.881Z,3.10
2023-04-30T13:33:36.171Z,2.60
2023-04-30T13:36:37.510Z,1.92
2023-04-30T13:39:38.801Z,2.30
2023-04-30T13:42:41.648Z,2.13
2023-04-30T13:45:42.934Z,3.13
2023-04-30T13:48:48.027Z,1.90
2023-04-30T13:51:49.807Z,1.50
2023-04-30T13:54:52.507Z,1.92
2023-04-30T13:57:55.365Z,1.88
2023-04-30T14:00:56.735Z,2.05
2023-04-30T14:03:58.585Z,2.40
2023-04-30T14:07:00.125Z,2.05
2023-04-30T14:10:01.408Z,3.05
2023-04-30T14:13:02.694Z,2.33
2023-04-30T14:16:04.209Z,2.17
2023-04-30T14:19:06.151Z,2.78
2023-04-30T14:22:07.453Z,2.30
2023-04-30T14:25:09.461Z,2.22
2023-04-30T14:28:11.783Z,2.33
2023-04-30T14:31:13.225Z,1.63
2023-04-30T14:34:15.253Z,2.72
2023-04-30T14:37:16.891Z,2.03
2023-04-30T14:40:18.353Z,1.98
2023-04-30T14:43:19.607Z,2.30
2023-04-30T14:46:20.996Z,2.28
2023-04-30T14:49:22.511Z,2.75
2023-04-30T14:52:23.808Z,2.42
2023-04-30T14:55:25.077Z,1.88
2023-04-30T14:58:26.379Z,2.30
2023-04-30T15:01:28.714Z,1.95
2023-04-30T15:04:30.180Z,2.97
2023-04-30T15:07:31.695Z,2.13
2023-04-30T15:10:32.943Z,2.80
2023-04-30T15:13:34.285Z,2.08
2023-04-30T15:16:35.614Z,2.38
2023-04-30T15:19:37.117Z,1.98
2023-04-30T15:22:38.394Z,2.25
2023-04-30T15:25:39.753Z,1.42
2023-04-30T15:28:41.086Z,2.55
2023-04-30T15:31:42.425Z,1.75
2023-04-30T15:34:43.672Z,1.88
2023-04-30T15:37:45.080Z,1.90
2023-04-30T15:40:46.587Z,2.65
2023-04-30T15:43:47.837Z,2.05
2023-04-30T15:46:49.650Z,2.60
2023-04-30T15:49:51.298Z,1.80
2023-04-30T15:52:52.680Z,2.13
2023-04-30T15:55:54.689Z,2.58
2023-04-30T15:58:57.210Z,1.98
2023-04-30T16:01:58.533Z,2.38
2023-04-30T16:04:59.797Z,1.50
2023-04-30T16:08:01.030Z,1.55
2023-04-30T16:11:03.760Z,1.95
2023-04-30T16:14:05.147Z,2.38
2023-04-30T16:17:06.396Z,2.47
2023-04-30T16:20:08.110Z,2.58
2023-04-30T16:23:09.668Z,2.55
2023-04-30T16:26:10.964Z,2.55
2023-04-30T16:29:12.254Z,2.83
2023-04-30T16:32:13.683Z,3.65
2023-04-30T16:35:15.429Z,2.85
2023-04-30T16:38:16.775Z,2.08
2023-04-30T16:41:18.126Z,1.73
2023-04-30T16:44:19.633Z,1.85
2023-04-30T16:47:20.936Z,2.08
2023-04-30T16:50:24.173Z,1.50
2023-04-30T16:56:26.759Z,2.03
2023-04-30T16:59:28.134Z,1.92
2023-04-30T17:02:29.478Z,2.85
2023-04-30T17:05:30.935Z,1.60
2023-04-30T17:08:32.254Z,1.98
2023-04-30T17:11:33.786Z,3.40
2023-04-30T17:14:35.042Z,3.28
2023-04-30T17:17:36.363Z,2.65
2023-04-30T17:20:37.655Z,2.97
2023-04-30T17:23:39.064Z,2.38
2023-04-30T17:26:40.424Z,2.13
2023-04-30T17:29:41.893Z,1.88
2023-04-30T17:32:44.097Z,2.17
2023-04-30T17:35:45.653Z,4.32
2023-04-30T17:38:46.952Z,2.92
2023-04-30T17:41:48.753Z,2.38
2023-04-30T17:44:50.115Z,2.03
2023-04-30T17:47:51.436Z,2.67
2023-04-30T17:50:52.788Z,2.47
2023-04-30T17:53:55.108Z,4.13
2023-04-30T17:56:56.917Z,3.17
2023-04-30T17:59:58.674Z,2.40
2023-04-30T18:03:00.206Z,3.13
2023-04-30T18:06:01.716Z,2.60
2023-04-30T18:09:04.172Z,2.78
2023-04-30T18:12:05.670Z,3.00
2023-04-30T18:15:08.434Z,3.28
2023-04-30T18:18:09.934Z,3.00
2023-04-30T18:21:11.243Z,6.55
2023-04-30T18:24:12.574Z,6.78
2023-04-30T18:27:13.993Z,6.00
2023-04-30T18:30:15.569Z,7.32
2023-04-30T18:33:16.825Z,4.50
2023-04-30T18:36:18.294Z,4.60
2023-04-30T18:39:21.159Z,3.88
2023-04-30T18:42:22.685Z,3.28
2023-04-30T18:45:24.108Z,2.70
2023-04-30T18:48:25.465Z,3.53
2023-04-30T18:51:26.800Z,2.17
2023-04-30T18:54:28.134Z,2.63
2023-04-30T18:57:29.414Z,2.60
2023-04-30T19:00:30.802Z,3.47
2023-04-30T19:03:33.809Z,2.72
2023-04-30T19:06:35.278Z,2.42
2023-04-30T19:09:36.973Z,2.42
2023-04-30T19:12:38.398Z,2.42
2023-04-30T19:15:42.414Z,2.47
2023-04-30T19:18:43.963Z,2.65
2023-04-30T19:21:45.404Z,2.90
2023-04-30T19:24:46.672Z,4.05
2023-04-30T19:27:48.058Z,6.85
2023-04-30T19:30:55.813Z,5.35
2023-04-30T19:33:59.342Z,4.53
2023-04-30T19:37:00.634Z,5.20
2023-04-30T19:40:01.975Z,5.80
2023-04-30T19:43:03.563Z,5.32
2023-04-30T19:46:04.878Z,4.60
2023-04-30T19:49:08.314Z,4.60
2023-04-30T19:52:10.161Z,4.07
2023-04-30T19:55:11.491Z,3.55
2023-04-30T19:58:13.324Z,5.35
2023-04-30T20:01:14.772Z,4.90
2023-04-30T20:04:16.161Z,3.40
2023-04-30T20:07:18.837Z,3.03
2023-04-30T20:10:20.315Z,5.72
2023-04-30T20:13:24.349Z,3.42
2023-04-30T20:16:25.808Z,2.85
2023-04-30T20:19:27.161Z,3.75
2023-04-30T20:22:28.516Z,2.85
2023-04-30T20:25:30.359Z,3.28
2023-04-30T20:28:31.694Z,2.80
2023-04-30T20:31:34.325Z,2.90
2023-04-30T20:34:36.718Z,3.28
2023-04-30T20:37:38.001Z,2.63
2023-04-30T20:40:40.540Z,3.35
2023-04-30T20:43:41.866Z,5.20
2023-04-30T20:46:43.250Z,3.70
2023-04-30T20:49:44.911Z,3.53
2023-04-30T20:52:46.226Z,4.50
2023-04-30T20:55:47.694Z,4.25
2023-04-30T20:58:49.064Z,3.40
2023-04-30T21:01:50.407Z,4.13
2023-04-30T21:04:51.752Z,3.63
2023-04-30T21:07:53.210Z,3.80
2023-04-30T21:10:54.527Z,4.15
2023-04-30T21:13:55.870Z,4.72
2023-04-30T21:16:57.332Z,3.72
2023-04-30T21:20:00.394Z,4.05
2023-04-30T21:23:02.418Z,3.47
2023-04-30T21:26:03.890Z,3.60
2023-04-30T21:29:05.234Z,3.38
2023-04-30T21:32:06.494Z,3.95
2023-04-30T21:35:08.067Z,4.32
2023-04-30T21:38:11.596Z,3.63
2023-04-30T21:41:16.801Z,3.30
2023-04-30T21:44:19.636Z,3.88
2023-04-30T21:47:20.962Z,4.00
2023-04-30T21:50:23.665Z,3.97
2023-04-30T21:53:25.017Z,4.93
2023-04-30T21:56:26.361Z,9.82
2023-04-30T21:59:27.731Z,4.30
2023-04-30T22:02:29.716Z,4.20
2023-04-30T22:05:31.673Z,4.30
2023-04-30T22:08:32.936Z,3.92
2023-04-30T22:11:34.172Z,5.30
2023-04-30T22:14:35.615Z,4.18
2023-04-30T22:17:36.971Z,5.43
2023-04-30T22:20:38.264Z,4.75
2023-04-30T22:23:40.499Z,4.85
2023-04-30T22:26:41.775Z,4.55
2023-04-30T22:29:43.270Z,4.50
2023-04-30T22:32:44.863Z,5.40
2023-04-30T22:35:46.758Z,4.07
2023-04-30T22:38:48.008Z,3.67
2023-04-30T22:41:50.705Z,4.15
2023-04-30T22:44:52.089Z,3.40
2023-04-30T22:47:53.962Z,3.33
2023-04-30T22:50:55.515Z,3.97
2023-04-30T22:53:57.233Z,3.38
2023-04-30T22:56:59.488Z,3.72
2023-04-30T23:00:00.862Z,3.10
2023-04-30T23:03:02.191Z,3.53
2023-04-30T23:06:03.601Z,3.15
2023-04-30T23:09:04.894Z,3.22
2023-04-30T23:12:06.557Z,3.22
2023-04-30T23:15:07.997Z,3.55
2023-04-30T23:18:10.195Z,2.65
2023-04-30T23:21:11.548Z,3.58
2023-04-30T23:24:13.037Z,3.10
2023-04-30T23:27:14.565Z,3.55
2023-04-30T23:30:15.841Z,2.90
2023-04-30T23:33:17.200Z,2.35
2023-04-30T23:36:18.560Z,3.20
2023-04-30T23:39:20.225Z,4.03
2023-04-30T23:42:21.474Z,3.20
2023-04-30T23:45:22.719Z,4.45
2023-04-30T23:48:24.197Z,3.55
2023-04-30T23:51:25.638Z,3.42
2023-04-30T23:54:27.154Z,3.13
2023-04-30T23:57:28.557Z,2.88
